Time;durP1;ratioP1;P1;durP2;ratioP2;P2;SDS_P1;SDS_P2;PMS_P1;PMS_P2;Temp;Humidity;BMP_temperature;BMP_pressure;BME280_temperature;BME280_humidity;BME280_pressure;Samples;Min_cycle;Max_cycle;Signal;HPM_P1;HPM_P2
2019/05/10 00:11:50;;;;;;;1.4;0.7;;;;;;;13.85;66.7832;953.4292;;;;
2019/05/10 00:14:02;;;;;;;3.4;0.9;;;;;;;14.04;66.01953;953.3345;;;;
2019/05/10 00:16:18;;;;;;;1.4;0.8;;;;;;;14.14;65.67969;953.4268;;;;
2019/05/10 00:18:44;;;;;;;1.7;0.8;;;;;;;14.18;65.59277;953.3259;;;;
2019/05/10 00:21:09;;;;;;;1.3;0.8;;;;;;;14.16;65.80176;953.4316;;;;
2019/05/10 00:23:34;;;;;;;2.5;0.8;;;;;;;14.08;66.07324;953.4169;;;;
2019/05/10 00:26:00;;;;;;;2.3;0.9;;;;;;;14.22;65.1377;953.4453;;;;
2019/05/10 00:28:25;;;;;;;2.1;0.9;;;;;;;14.2;65.37012;953.437;;;;
2019/05/10 00:30:50;;;;;;;2.2;1;;;;;;;14.1;65.71094;953.5037;;;;
2019/05/10 00:33:15;;;;;;;1.7;0.9;;;;;;;14.15;65.75195;953.4645;;;;
2019/05/10 00:35:40;;;;;;;2.5;1.1;;;;;;;14.22;65.31445;953.5015;;;;
2019/05/10 00:38:05;;;;;;;2.4;1;;;;;;;14.18;65.42773;953.483;;;;
2019/05/10 00:40:30;;;;;;;2.5;0.9;;;;;;;14.21;65.43164;953.5385;;;;
2019/05/10 00:42:55;;;;;;;1.6;0.9;;;;;;;14.22;64.81836;953.5839;;;;
2019/05/10 00:45:21;;;;;;;2.5;1;;;;;;;14.26;64.95508;953.5892;;;;
2019/05/10 00:47:46;;;;;;;2.1;1;;;;;;;14.22;65.29102;953.6193;;;;
2019/05/10 00:50:11;;;;;;;1.5;0.8;;;;;;;14.07;66.30859;953.6201;;;;
2019/05/10 00:52:36;;;;;;;3.2;1;;;;;;;14.1;65.82813;953.5577;;;;
2019/05/10 00:55:01;;;;;;;2.9;1.1;;;;;;;14.12;66.05664;953.5178;;;;
2019/05/10 00:57:28;;;;;;;2.3;1.1;;;;;;;14.06;66.15332;953.6085;;;;
2019/05/10 00:59:53;;;;;;;1.9;1;;;;;;;13.97;66.4707;953.5953;;;;
2019/05/10 01:02:18;;;;;;;2.9;1;;;;;;;14.01;66.25195;953.5876;;;;
2019/05/10 01:04:43;;;;;;;1.8;1;;;;;;;13.91;66.75684;953.5553;;;;
2019/05/10 01:07:10;;;;;;;1.5;1;;;;;;;14.03;66.36035;953.5676;;;;
2019/05/10 01:09:35;;;;;;;3.6;1.2;;;;;;;13.96;66.88184;953.5684;;;;
2019/05/10 01:12:00;;;;;;;2.9;1;;;;;;;13.83;67.22754;953.5644;;;;
2019/05/10 01:14:25;;;;;;;2.2;1;;;;;;;13.93;66.67773;953.6125;;;;
2019/05/10 01:16:50;;;;;;;2.5;1.1;;;;;;;13.75;67.51172;953.6005;;;;
2019/05/10 01:19:17;;;;;;;3.6;1.1;;;;;;;13.64;67.4707;953.698;;;;
2019/05/10 01:21:42;;;;;;;1.5;1;;;;;;;13.73;67.35449;953.7491;;;;
2019/05/10 01:24:07;;;;;;;2.6;1.1;;;;;;;13.86;66.74902;953.8332;;;;
2019/05/10 01:26:32;;;;;;;3;1.2;;;;;;;13.75;67.38184;953.8491;;;;
2019/05/10 01:28:57;;;;;;;2.7;1.2;;;;;;;13.57;68.14355;953.7863;;;;
2019/05/10 01:31:22;;;;;;;3.4;1.2;;;;;;;13.57;67.89648;953.9302;;;;
2019/05/10 01:33:47;;;;;;;2.9;1.2;;;;;;;13.35;68.5332;953.8226;;;;
2019/05/10 01:36:13;;;;;;;2.1;1.2;;;;;;;13.26;69.09863;953.8469;;;;
2019/05/10 01:38:38;;;;;;;3.4;1.3;;;;;;;13.47;68.12891;953.8716;;;;
2019/05/10 01:41:03;;;;;;;3.7;1.2;;;;;;;13.47;68.63672;953.9461;;;;
2019/05/10 01:43:28;;;;;;;3.6;1.8;;;;;;;13.55;68.18848;953.9387;;;;
2019/05/10 01:45:54;;;;;;;4.7;1.3;;;;;;;13.7;67.38379;953.9044;;;;
2019/05/10 01:48:20;;;;;;;3.3;1.3;;;;;;;13.52;68.18262;953.9802;;;;
2019/05/10 01:50:45;;;;;;;2.5;1.2;;;;;;;13.55;68.02344;953.9688;;;;
2019/05/10 01:53:12;;;;;;;3.7;1.5;;;;;;;13.54;67.97363;954.037;;;;
2019/05/10 01:55:37;;;;;;;3;1.4;;;;;;;13.62;67.50293;954.0504;;;;
2019/05/10 01:58:02;;;;;;;2.4;1.3;;;;;;;13.64;67.48242;954.0419;;;;
2019/05/10 02:00:27;;;;;;;5.9;1.7;;;;;;;13.56;67.44629;954.0139;;;;
2019/05/10 02:02:52;;;;;;;3.1;1.3;;;;;;;13.44;67.9834;953.9861;;;;
2019/05/10 02:05:18;;;;;;;2.2;1.2;;;;;;;13.23;68.38477;954.0112;;;;
2019/05/10 02:07:43;;;;;;;3.7;1.3;;;;;;;13.44;67.52344;954.0253;;;;
2019/05/10 02:10:08;;;;;;;3.7;1.2;;;;;;;13.49;67.34277;953.9753;;;;
2019/05/10 02:12:33;;;;;;;4.1;1.3;;;;;;;13.48;67.31445;953.9655;;;;
2019/05/10 02:14:58;;;;;;;3;1.1;;;;;;;13.58;66.71875;954.0019;;;;
2019/05/10 02:17:23;;;;;;;2.4;1.3;;;;;;;13.59;66.86035;954.0358;;;;
2019/05/10 02:19:51;;;;;;;4.3;1.2;;;;;;;13.65;66.37305;954.1295;;;;
2019/05/10 02:22:16;;;;;;;2.7;1.4;;;;;;;13.62;66.33301;954.1511;;;;
2019/05/10 02:24:41;;;;;;;3.4;1.2;;;;;;;13.56;66.65527;954.1408;;;;
2019/05/10 02:27:06;;;;;;;3.1;1.3;;;;;;;13.49;66.82227;954.1337;;;;
2019/05/10 02:29:31;;;;;;;2.8;1.3;;;;;;;13.24;67.82227;954.1429;;;;
2019/05/10 02:31:56;;;;;;;2.8;1.2;;;;;;;13.22;67.7959;954.1082;;;;
2019/05/10 02:34:24;;;;;;;2.6;1.4;;;;;;;13.05;68.38086;954.1033;;;;
2019/05/10 02:36:49;;;;;;;3.8;1.3;;;;;;;13.26;67.22266;954.1214;;;;
2019/05/10 02:39:14;;;;;;;2.7;1.2;;;;;;;13.26;67.16309;954.0744;;;;
2019/05/10 02:41:39;;;;;;;3.2;1.2;;;;;;;13.18;67.52832;954.0781;;;;
2019/05/10 02:44:04;;;;;;;4.2;1.5;;;;;;;13.25;66.79688;954.0553;;;;
2019/05/10 02:46:29;;;;;;;3;1.4;;;;;;;13.34;66.45703;953.9756;;;;
2019/05/10 02:48:54;;;;;;;3.5;1.3;;;;;;;13.36;66.42383;954.0158;;;;
2019/05/10 02:51:21;;;;;;;3.3;1.2;;;;;;;13.32;66.5127;954.1017;;;;
2019/05/10 02:53:47;;;;;;;3.8;1.4;;;;;;;13.26;66.58594;954.0822;;;;
2019/05/10 02:56:12;;;;;;;3.2;1.2;;;;;;;13.2;67.06055;954.0905;;;;
2019/05/10 02:58:37;;;;;;;3.7;1.2;;;;;;;13.16;66.74805;954.0195;;;;
2019/05/10 03:01:02;;;;;;;4.5;1.5;;;;;;;13.16;67.11426;954.0588;;;;
2019/05/10 03:03:28;;;;;;;5.6;1.2;;;;;;;13;67.27637;954.0953;;;;
2019/05/10 03:05:53;;;;;;;3.1;1.4;;;;;;;12.81;68.22559;954.0059;;;;
2019/05/10 03:08:20;;;;;;;4;1.3;;;;;;;12.73;68.60254;954.0039;;;;
2019/05/10 03:10:45;;;;;;;2.5;1.2;;;;;;;12.74;68.50977;954.0063;;;;
2019/05/10 03:13:10;;;;;;;4.3;1.3;;;;;;;12.86;67.98535;954.0231;;;;
2019/05/10 03:15:37;;;;;;;4.4;1.3;;;;;;;12.83;67.875;954.0369;;;;
2019/05/10 03:18:01;;;;;;;4.9;1.5;;;;;;;12.8;68.16602;954.0783;;;;
2019/05/10 03:20:26;;;;;;;4.7;1.7;;;;;;;12.75;68.14551;954.001;;;;
2019/05/10 03:22:51;;;;;;;3.4;1.7;;;;;;;12.74;68.17969;954.0547;;;;
2019/05/10 03:25:17;;;;;;;3.7;1.7;;;;;;;12.83;67.75781;954.1337;;;;
2019/05/10 03:27:42;;;;;;;4.8;1.7;;;;;;;12.91;67.41797;954.1342;;;;
2019/05/10 03:30:07;;;;;;;3.6;1.5;;;;;;;13.01;67.04199;954.1461;;;;
2019/05/10 03:32:32;;;;;;;3.6;1.6;;;;;;;13.07;66.82617;954.2087;;;;
2019/05/10 03:34:57;;;;;;;4.1;1.8;;;;;;;13.12;66.57617;954.18;;;;
2019/05/10 03:37:22;;;;;;;3.4;1.9;;;;;;;13.13;66.50879;954.2086;;;;
2019/05/10 03:39:48;;;;;;;3.4;1.9;;;;;;;13.16;66.50098;954.2509;;;;
2019/05/10 03:42:13;;;;;;;5;2.2;;;;;;;13.12;66.70605;954.2506;;;;
2019/05/10 03:44:38;;;;;;;5.6;2.1;;;;;;;13.07;66.63867;954.2947;;;;
2019/05/10 03:47:03;;;;;;;3;1.9;;;;;;;13.07;66.46094;954.3394;;;;
2019/05/10 03:49:28;;;;;;;4.5;1.7;;;;;;;13.04;66.28027;954.4052;;;;
2019/05/10 03:51:53;;;;;;;4.6;2;;;;;;;13.04;66.29199;954.4313;;;;
2019/05/10 03:54:18;;;;;;;6.2;2.1;;;;;;;13.03;66.28027;954.4906;;;;
2019/05/10 03:56:43;;;;;;;4.6;1.6;;;;;;;13;66.29883;954.4611;;;;
2019/05/10 03:59:10;;;;;;;3.2;1.7;;;;;;;13.03;66.05664;954.485;;;;
2019/05/10 04:02:37;;;;;;;6.2;1.8;;;;;;;13.09;65.75879;954.5439;;;;
2019/05/10 04:05:02;;;;;;;4.1;2;;;;;;;13.11;65.82031;954.5695;;;;
2019/05/10 04:07:27;;;;;;;4;1.8;;;;;;;13.08;65.76855;954.5506;;;;
2019/05/10 04:09:53;;;;;;;5.2;1.7;;;;;;;13.11;65.4082;954.5488;;;;
2019/05/10 04:12:18;;;;;;;7;1.8;;;;;;;13.1;65.62891;954.4944;;;;
2019/05/10 04:14:44;;;;;;;4.9;1.7;;;;;;;13.12;65.66895;954.5734;;;;
2019/05/10 04:17:09;;;;;;;4.2;1.8;;;;;;;13.13;65.65723;954.6021;;;;
2019/05/10 04:21:45;;;;;;;4.2;1.7;;;;;;;13.14;65.44727;954.6345;;;;
2019/05/10 04:24:10;;;;;;;3.9;1.6;;;;;;;13.12;65.50391;954.6204;;;;
2019/05/10 04:26:36;;;;;;;3.2;1.6;;;;;;;13.13;65.25781;954.6099;;;;
2019/05/10 04:29:01;;;;;;;3;1.5;;;;;;;13.15;65.18945;954.6144;;;;
2019/05/10 04:31:26;;;;;;;4.8;1.7;;;;;;;13.16;65.02539;954.613;;;;
2019/05/10 04:33:53;;;;;;;4.8;1.5;;;;;;;13.17;65.19336;954.6454;;;;
2019/05/10 04:36:18;;;;;;;3.5;1.8;;;;;;;13.16;65.58008;954.6912;;;;
2019/05/10 04:38:44;;;;;;;3.6;1.6;;;;;;;13.2;65.7041;954.8223;;;;
2019/05/10 04:41:09;;;;;;;5.1;1.7;;;;;;;13.26;65.8418;954.8416;;;;
2019/05/10 04:43:34;;;;;;;5.1;1.9;;;;;;;13.33;65.79492;954.9405;;;;
2019/05/10 04:45:59;;;;;;;4.5;1.6;;;;;;;12.9;68.13379;954.93;;;;
2019/05/10 04:48:24;;;;;;;5.1;1.6;;;;;;;12.46;69.86621;954.9227;;;;
2019/05/10 04:50:49;;;;;;;4.5;1.5;;;;;;;12.65;69.29492;954.9603;;;;
2019/05/10 04:53:16;;;;;;;4.6;1.8;;;;;;;12.75;69.49023;954.9752;;;;
2019/05/10 04:55:41;;;;;;;4.5;1.7;;;;;;;12.73;69.8623;955.0408;;;;
2019/05/10 04:58:07;;;;;;;5;1.5;;;;;;;12.64;69.31836;955.1057;;;;
2019/05/10 05:00:33;;;;;;;2.9;1.4;;;;;;;12.48;69.96387;955.1495;;;;
2019/05/10 05:03:00;;;;;;;3.5;1.6;;;;;;;12.56;70.36523;955.1649;;;;
2019/05/10 05:05:25;;;;;;;2.5;1.1;;;;;;;12.62;69.11426;955.0538;;;;
2019/05/10 05:07:51;;;;;;;4.5;1.3;;;;;;;12.68;69.12402;955.1152;;;;
2019/05/10 05:10:16;;;;;;;4.3;1.5;;;;;;;12.88;68.39063;955.0934;;;;
2019/05/10 05:12:41;;;;;;;3.1;1.3;;;;;;;12.93;67.61914;955.1238;;;;
2019/05/10 05:15:07;;;;;;;2.7;1.2;;;;;;;12.87;67.54004;955.1435;;;;
2019/05/10 05:17:32;;;;;;;2.1;1.1;;;;;;;12.73;68.87305;955.123;;;;
2019/05/10 05:19:57;;;;;;;2.5;1.2;;;;;;;12.82;68.14453;955.1145;;;;
2019/05/10 05:22:22;;;;;;;2.8;1.2;;;;;;;13;67.84375;955.2095;;;;
2019/05/10 05:24:47;;;;;;;2.9;1.1;;;;;;;12.9;68.84082;955.1898;;;;
2019/05/10 05:27:12;;;;;;;3.8;1.4;;;;;;;13.13;68.21777;955.1886;;;;
2019/05/10 05:29:37;;;;;;;4.1;1.5;;;;;;;13.23;67.6084;955.3036;;;;
2019/05/10 05:32:02;;;;;;;3.3;1.4;;;;;;;13.26;68.03711;955.2715;;;;
2019/05/10 05:34:28;;;;;;;3.3;1.4;;;;;;;13.2;68.52246;955.3411;;;;
2019/05/10 05:36:53;;;;;;;5;1.6;;;;;;;13.2;68.38086;955.3411;;;;
2019/05/10 05:39:18;;;;;;;2.7;1.5;;;;;;;13.21;68.22949;955.3304;;;;
2019/05/10 05:41:43;;;;;;;5.3;1.8;;;;;;;13.33;67.58789;955.3195;;;;
2019/05/10 05:44:09;;;;;;;3.7;1.6;;;;;;;13.38;68.43262;955.3537;;;;
2019/05/10 05:46:34;;;;;;;4.7;1.7;;;;;;;13.43;68.96094;955.3472;;;;
2019/05/10 05:48:59;;;;;;;4.4;1.7;;;;;;;13.28;68.34668;955.4163;;;;
2019/05/10 05:51:24;;;;;;;5.5;1.7;;;;;;;13.31;68.32813;955.4979;;;;
2019/05/10 05:53:49;;;;;;;3.7;1.8;;;;;;;13.34;68.28516;955.471;;;;
2019/05/10 05:56:14;;;;;;;7;1.7;;;;;;;13.37;68.15918;955.525;;;;
2019/05/10 05:58:40;;;;;;;3.9;1.8;;;;;;;13.24;68.50488;955.5297;;;;
2019/05/10 06:01:05;;;;;;;4.3;1.8;;;;;;;13.2;68.56934;955.6456;;;;
2019/05/10 06:03:30;;;;;;;4;1.9;;;;;;;13.28;68.34668;955.6908;;;;
2019/05/10 06:05:55;;;;;;;3.7;1.8;;;;;;;13.29;68.71191;955.6685;;;;
2019/05/10 06:08:20;;;;;;;3.5;1.9;;;;;;;13.18;69.05078;955.6315;;;;
2019/05/10 06:10:46;;;;;;;4;2.1;;;;;;;13.22;68.76074;955.7509;;;;
2019/05/10 06:13:11;;;;;;;5.3;2;;;;;;;13.29;68.53613;955.8031;;;;
2019/05/10 06:15:38;;;;;;;5.2;1.8;;;;;;;13.31;68.78809;955.8639;;;;
2019/05/10 06:18:03;;;;;;;5.1;1.8;;;;;;;13.07;69.75098;955.7227;;;;
2019/05/10 06:20:30;;;;;;;5.4;1.8;;;;;;;13.18;68.75391;955.8423;;;;
2019/05/10 06:22:55;;;;;;;4.6;1.9;;;;;;;13.04;69.16992;955.9285;;;;
2019/05/10 06:25:20;;;;;;;4.4;1.7;;;;;;;12.82;70.57031;955.9335;;;;
2019/05/10 06:27:46;;;;;;;3.1;1.6;;;;;;;12.85;69.66895;955.9185;;;;
2019/05/10 06:30:11;;;;;;;3.5;1.5;;;;;;;12.69;69.79492;955.8111;;;;
2019/05/10 06:32:36;;;;;;;4.5;1.7;;;;;;;12.99;69.2793;955.879;;;;
2019/05/10 06:35:01;;;;;;;4.4;1.4;;;;;;;12.72;69.80078;955.766;;;;
2019/05/10 06:37:26;;;;;;;6.2;1.7;;;;;;;12.4;71.48047;955.7882;;;;
2019/05/10 06:39:51;;;;;;;3.4;1.5;;;;;;;12.4;72.0918;955.9095;;;;
2019/05/10 06:42:16;;;;;;;2;1.5;;;;;;;12.33;72.29199;955.971;;;;
2019/05/10 06:44:42;;;;;;;4.3;1.4;;;;;;;12.13;72.09375;955.9434;;;;
2019/05/10 06:47:07;;;;;;;2.7;1.3;;;;;;;11.87;73.16699;956.0162;;;;
2019/05/10 06:49:32;;;;;;;3;1.4;;;;;;;11.98;73.70508;955.9632;;;;
2019/05/10 06:51:57;;;;;;;2.5;1.2;;;;;;;11.78;74.43457;956.1365;;;;
2019/05/10 06:54:22;;;;;;;1.9;1;;;;;;;11.93;73.71973;955.9604;;;;
2019/05/10 06:56:47;;;;;;;2.2;1.2;;;;;;;11.68;74.40625;955.8901;;;;
2019/05/10 06:59:12;;;;;;;2.8;1;;;;;;;12.14;72.12012;955.9813;;;;
2019/05/10 07:01:37;;;;;;;3.4;1.2;;;;;;;12.19;71.98633;956.0286;;;;
2019/05/10 07:04:03;;;;;;;2.1;1;;;;;;;12.18;72.2793;956.0483;;;;
2019/05/10 07:06:28;;;;;;;2.5;1;;;;;;;12.48;72.35449;956.0111;;;;
2019/05/10 07:08:53;;;;;;;2.3;1;;;;;;;12.66;71.0625;956.1301;;;;
2019/05/10 07:11:18;;;;;;;2.6;1;;;;;;;12.77;70.27051;956.2466;;;;
2019/05/10 07:13:43;;;;;;;2.6;1.1;;;;;;;12.7;72.25977;956.1959;;;;
2019/05/10 07:16:10;;;;;;;2.5;1.3;;;;;;;12.62;71.79883;956.2511;;;;
2019/05/10 07:18:35;;;;;;;3.7;1.1;;;;;;;12.69;71.65918;956.2925;;;;
2019/05/10 07:21:00;;;;;;;3.6;1.1;;;;;;;12.85;70.37598;956.2802;;;;
2019/05/10 07:23:25;;;;;;;2;1;;;;;;;12.84;69.5498;956.3003;;;;
2019/05/10 07:25:50;;;;;;;3.2;1.2;;;;;;;13.18;69.28516;956.3428;;;;
2019/05/10 07:28:17;;;;;;;2.9;0.9;;;;;;;13.32;69.11816;956.303;;;;
2019/05/10 07:30:42;;;;;;;1.9;1.1;;;;;;;13.74;68.27734;956.2798;;;;
2019/05/10 07:33:07;;;;;;;3;1;;;;;;;14.05;67.67578;956.2587;;;;
2019/05/10 07:35:32;;;;;;;2.5;1.2;;;;;;;14.22;66.78027;956.2634;;;;
2019/05/10 07:37:57;;;;;;;2.9;1.2;;;;;;;14.66;65.36914;956.312;;;;
2019/05/10 07:40:22;;;;;;;3.1;1.2;;;;;;;14.53;66.12988;956.3118;;;;
2019/05/10 07:42:47;;;;;;;2.4;1.1;;;;;;;14.84;65.16992;956.3934;;;;
2019/05/10 07:45:13;;;;;;;2.6;1.2;;;;;;;14.98;65.66504;956.3303;;;;
2019/05/10 07:47:40;;;;;;;3;1.3;;;;;;;14.81;64.59766;956.3338;;;;
2019/05/10 07:50:05;;;;;;;2;1.2;;;;;;;14.55;65.375;956.324;;;;
2019/05/10 07:52:30;;;;;;;3.2;1.4;;;;;;;14.85;65.81055;956.3;;;;
2019/05/10 07:54:55;;;;;;;3.9;1.3;;;;;;;15.12;65.05859;956.3365;;;;
2019/05/10 07:57:20;;;;;;;2.8;1.4;;;;;;;14.95;64.42969;956.2919;;;;
2019/05/10 07:59:45;;;;;;;3.3;1.5;;;;;;;15.31;64.71875;956.3334;;;;
2019/05/10 08:02:11;;;;;;;3;1.3;;;;;;;15.4;64.70898;956.3923;;;;
2019/05/10 08:04:36;;;;;;;4;1.5;;;;;;;15.42;63.71582;956.3628;;;;
2019/05/10 08:07:01;;;;;;;3.2;1.4;;;;;;;15.7;63.08203;956.3452;;;;
2019/05/10 08:09:26;;;;;;;2.9;1.3;;;;;;;15.64;62.5752;956.335;;;;
2019/05/10 08:11:51;;;;;;;3.2;1.3;;;;;;;15.77;62.75781;956.4453;;;;
2019/05/10 08:14:16;;;;;;;4.7;1.6;;;;;;;15.7;60.875;956.3937;;;;
2019/05/10 08:16:41;;;;;;;4.1;1.7;;;;;;;15.56;62.35059;956.3953;;;;
2019/05/10 08:19:06;;;;;;;3;1.5;;;;;;;15.44;63.56445;956.403;;;;
2019/05/10 08:21:31;;;;;;;4.6;1.6;;;;;;;15.47;63.2373;956.4045;;;;
2019/05/10 08:23:56;;;;;;;3.9;1.5;;;;;;;15.04;65.50977;956.4437;;;;
2019/05/10 08:26:22;;;;;;;3.2;1.6;;;;;;;15.27;65.83887;956.4291;;;;
2019/05/10 08:28:47;;;;;;;4.3;1.5;;;;;;;15.24;64.27051;956.4208;;;;
2019/05/10 08:31:12;;;;;;;3.1;1.5;;;;;;;15.18;63.87109;956.4498;;;;
2019/05/10 08:33:38;;;;;;;3;1.4;;;;;;;15.41;61.97266;956.426;;;;
2019/05/10 08:36:03;;;;;;;4.4;1.6;;;;;;;15.41;62.22168;956.5011;;;;
2019/05/10 08:38:29;;;;;;;3.6;1.9;;;;;;;15.36;62.27441;956.4486;;;;
2019/05/10 08:40:54;;;;;;;3.9;1.4;;;;;;;15.59;62.7334;956.4548;;;;
2019/05/10 08:43:20;;;;;;;3.3;1.5;;;;;;;15.38;62.73926;956.4793;;;;
2019/05/10 08:45:45;;;;;;;4.8;1.8;;;;;;;15.68;62.48535;956.5333;;;;
2019/05/10 08:48:13;;;;;;;3;1.8;;;;;;;15.77;62.29688;956.5016;;;;
2019/05/10 08:50:38;;;;;;;3.6;1.7;;;;;;;15.6;62.21191;956.5056;;;;
2019/05/10 08:53:03;;;;;;;5.1;1.9;;;;;;;15.3;61.49512;956.4832;;;;
2019/05/10 08:55:29;;;;;;;6;1.7;;;;;;;15.51;62.7334;956.5691;;;;
2019/05/10 08:57:54;;;;;;;4.8;1.9;;;;;;;15.76;62.15332;956.5255;;;;
2019/05/10 09:00:19;;;;;;;4.3;2;;;;;;;15.77;61.88086;956.5055;;;;
2019/05/10 09:02:44;;;;;;;3.8;1.8;;;;;;;15.75;61.9502;956.6937;;;;
2019/05/10 09:05:09;;;;;;;5.9;1.9;;;;;;;15.3;61.58887;956.6103;;;;
2019/05/10 09:07:34;;;;;;;5;1.7;;;;;;;15.23;63.85449;956.6373;;;;
2019/05/10 09:09:59;;;;;;;5.1;1.9;;;;;;;15.29;63.10547;956.6908;;;;
2019/05/10 09:12:25;;;;;;;4.2;1.8;;;;;;;15.32;64.23535;956.7371;;;;
2019/05/10 09:14:50;;;;;;;4.9;1.8;;;;;;;15.25;63.41895;956.8088;;;;
2019/05/10 09:17:16;;;;;;;4.7;1.9;;;;;;;15.04;65.37793;956.7729;;;;
2019/05/10 09:19:41;;;;;;;4.3;1.8;;;;;;;15.23;64.02051;956.8641;;;;
2019/05/10 09:22:06;;;;;;;3.3;1.7;;;;;;;14.72;65.74316;956.8856;;;;
2019/05/10 09:24:31;;;;;;;3.6;1.6;;;;;;;14.6;67.11035;956.9661;;;;
2019/05/10 09:26:56;;;;;;;3.5;1.6;;;;;;;14.82;66.74316;956.8943;;;;
2019/05/10 09:29:24;;;;;;;5;1.8;;;;;;;15.13;64.96582;956.9367;;;;
2019/05/10 09:31:50;;;;;;;3.4;1.8;;;;;;;14.81;67.42773;957.0623;;;;
2019/05/10 09:34:15;;;;;;;4.2;1.7;;;;;;;15.21;65.55664;957.0917;;;;
2019/05/10 09:36:40;;;;;;;3.5;1.7;;;;;;;15.19;66.39551;957.087;;;;
2019/05/10 09:39:05;;;;;;;4.4;1.9;;;;;;;15.17;65.52832;957.1049;;;;
2019/05/10 09:41:31;;;;;;;5.4;1.8;;;;;;;15.21;65.1543;957.1311;;;;
2019/05/10 09:43:56;;;;;;;3.2;1.6;;;;;;;15.26;63.31348;957.1518;;;;
2019/05/10 09:46:21;;;;;;;4.7;1.6;;;;;;;15;64.11719;957.2076;;;;
2019/05/10 09:48:46;;;;;;;4.4;1.3;;;;;;;14.76;62.30762;957.1255;;;;
2019/05/10 09:51:11;;;;;;;2.1;1;;;;;;;14.53;62.77051;957.1631;;;;
2019/05/10 09:53:37;;;;;;;2.4;1.2;;;;;;;14.85;62.66309;957.077;;;;
2019/05/10 09:56:02;;;;;;;2.7;1.1;;;;;;;14.98;62.59961;957.0721;;;;
2019/05/10 09:58:31;;;;;;;2.7;1.2;;;;;;;15.15;61.36816;957.0908;;;;
2019/05/10 10:00:56;;;;;;;4.4;1.3;;;;;;;15.25;62.49512;957.0525;;;;
2019/05/10 10:03:21;;;;;;;2.4;1.1;;;;;;;15.35;60.29297;957.0378;;;;
2019/05/10 10:05:46;;;;;;;2.7;1.1;;;;;;;15.38;60.73535;957.084;;;;
2019/05/10 10:08:11;;;;;;;2.3;1.1;;;;;;;15.14;60.99902;957.0401;;;;
2019/05/10 10:10:36;;;;;;;4.1;1.2;;;;;;;15.15;59.80469;957.0028;;;;
2019/05/10 10:13:01;;;;;;;1.7;1;;;;;;;15.34;58.77637;956.9645;;;;
2019/05/10 10:15:26;;;;;;;2.2;1;;;;;;;15.55;57.55859;957.0321;;;;
2019/05/10 10:17:52;;;;;;;2.5;0.9;;;;;;;15.7;58.19629;957.0182;;;;
2019/05/10 10:22:49;;;;;;;2.1;1;;;;;;;15.98;57.69824;957.067;;;;
2019/05/10 10:25:14;;;;;;;2.8;1.1;;;;;;;16.09;56.34863;957.0739;;;;
2019/05/10 10:27:41;;;;;;;2.2;1;;;;;;;15.89;56.59668;957.062;;;;
2019/05/10 10:30:06;;;;;;;2.3;0.9;;;;;;;15.71;57.36621;957.0259;;;;
2019/05/10 10:32:34;;;;;;;3.7;0.9;;;;;;;15.99;57.27148;957.0432;;;;
2019/05/10 10:34:59;;;;;;;3.2;0.9;;;;;;;15.95;56.88672;956.9946;;;;
2019/05/10 10:37:27;;;;;;;2.2;1;;;;;;;16.02;54.66504;957.0762;;;;
2019/05/10 10:39:52;;;;;;;2.1;0.9;;;;;;;16.08;53.33105;956.959;;;;
2019/05/10 10:42:18;;;;;;;2.2;1;;;;;;;15.87;54.55176;956.9747;;;;
2019/05/10 10:44:43;;;;;;;2.6;1;;;;;;;15.94;55.93652;956.9269;;;;
2019/05/10 10:47:09;;;;;;;2.1;0.9;;;;;;;15.76;55.02441;957.0636;;;;
2019/05/10 10:49:34;;;;;;;2.3;1;;;;;;;15.81;54.78027;957.0582;;;;
2019/05/10 10:51:59;;;;;;;2;1;;;;;;;16.06;54.29004;957.05;;;;
2019/05/10 10:54:25;;;;;;;2.3;0.8;;;;;;;15.93;53.87012;957.1345;;;;
2019/05/10 10:56:51;;;;;;;2.3;0.9;;;;;;;15.83;55.25879;957.1361;;;;
2019/05/10 10:59:16;;;;;;;3;1.1;;;;;;;15.81;56.02734;957.1145;;;;
2019/05/10 11:01:41;;;;;;;3;1.1;;;;;;;15.99;56.07227;957.1219;;;;
2019/05/10 11:04:06;;;;;;;2.9;1.1;;;;;;;15.76;56.98145;957.0898;;;;
2019/05/10 11:06:32;;;;;;;2.7;1.3;;;;;;;15.51;57.17285;957.1764;;;;
2019/05/10 11:08:57;;;;;;;3.5;1.1;;;;;;;14.91;59.86621;957.1121;;;;
2019/05/10 11:11:24;;;;;;;2;1.2;;;;;;;14.82;60.8252;957.235;;;;
2019/05/10 11:13:49;;;;;;;4.3;1.2;;;;;;;14.39;62.39551;957.1302;;;;
2019/05/10 11:16:15;;;;;;;2.5;1.3;;;;;;;14.47;62.78516;957.1526;;;;
2019/05/10 11:18:40;;;;;;;2.2;1.2;;;;;;;14.71;62.33594;957.1437;;;;
2019/05/10 11:21:05;;;;;;;2.6;1.1;;;;;;;14.9;61.56836;956.9708;;;;
2019/05/10 11:23:31;;;;;;;2.1;1;;;;;;;14.81;61.5459;956.9574;;;;
2019/05/10 11:25:56;;;;;;;2.4;0.8;;;;;;;15.1;58.83789;956.9219;;;;
2019/05/10 11:28:21;;;;;;;5.3;1.1;;;;;;;15.37;58.09277;956.9771;;;;
2019/05/10 11:30:46;;;;;;;2.8;1;;;;;;;15.66;58.65137;957.0144;;;;
2019/05/10 11:33:11;;;;;;;2.7;1;;;;;;;15.7;58.91992;957.1587;;;;
2019/05/10 11:35:36;;;;;;;4.2;1.2;;;;;;;15.78;58.26563;957.1024;;;;
2019/05/10 11:38:02;;;;;;;4;1.1;;;;;;;15.65;56.8252;957.1247;;;;
2019/05/10 11:40:27;;;;;;;2.1;0.8;;;;;;;15.18;55.03418;957.1072;;;;
2019/05/10 11:42:52;;;;;;;2.6;1;;;;;;;15.17;55.87402;957.1349;;;;
2019/05/10 11:45:18;;;;;;;5.6;1.1;;;;;;;14.88;56.13281;957.1852;;;;
2019/05/10 11:47:43;;;;;;;3.1;1;;;;;;;14.93;56.1748;957.1035;;;;
2019/05/10 11:50:08;;;;;;;3.1;1;;;;;;;15.18;55.86328;957.2195;;;;
2019/05/10 11:52:34;;;;;;;3.2;1;;;;;;;15.09;56.30371;957.1895;;;;
2019/05/10 11:54:59;;;;;;;2.2;0.9;;;;;;;14.92;56.55273;957.2676;;;;
2019/05/10 11:57:24;;;;;;;4;1;;;;;;;14.93;56.82617;957.1953;;;;
2019/05/10 11:59:50;;;;;;;2.2;1;;;;;;;14.94;57.43164;957.2463;;;;
2019/05/10 12:02:15;;;;;;;2.8;1.1;;;;;;;15.16;57.4248;957.215;;;;
2019/05/10 12:04:40;;;;;;;2.6;1.3;;;;;;;15;58.45801;957.2733;;;;
2019/05/10 12:07:06;;;;;;;3.8;1.2;;;;;;;14.82;59.2373;957.2011;;;;
2019/05/10 12:09:31;;;;;;;2.4;1.2;;;;;;;14.96;59.83691;957.1852;;;;
2019/05/10 12:11:58;;;;;;;2.6;1.2;;;;;;;14.82;59.43945;957.2234;;;;
2019/05/10 12:14:23;;;;;;;3.5;1.2;;;;;;;14.97;59.64844;957.2139;;;;
2019/05/10 12:16:49;;;;;;;2.1;1.1;;;;;;;14.92;58.62305;957.1195;;;;
2019/05/10 12:19:14;;;;;;;2.2;1.1;;;;;;;14.87;58.96191;957.1158;;;;
2019/05/10 12:21:39;;;;;;;2.7;1;;;;;;;15.08;56.52441;957.0313;;;;
2019/05/10 12:24:04;;;;;;;3.5;1.2;;;;;;;15.34;56.86816;956.9553;;;;
2019/05/10 12:26:29;;;;;;;3.3;1.1;;;;;;;15.22;56.57813;957.0078;;;;
2019/05/10 12:28:54;;;;;;;3.1;1.1;;;;;;;15.27;56.73926;957.0439;;;;
2019/05/10 12:31:19;;;;;;;3.5;1.1;;;;;;;15.66;55.86426;957.1717;;;;
2019/05/10 12:33:44;;;;;;;3.5;1.2;;;;;;;15.93;54.76074;957.1199;;;;
2019/05/10 12:36:09;;;;;;;2.9;0.9;;;;;;;16.18;54.15137;957.1958;;;;
2019/05/10 12:38:35;;;;;;;3.4;1.2;;;;;;;15.93;53.97754;957.187;;;;
2019/05/10 12:41:00;;;;;;;3.3;1.2;;;;;;;15.81;51.92188;957.1763;;;;
2019/05/10 12:43:25;;;;;;;3.8;1;;;;;;;15.79;52.44141;957.2711;;;;
2019/05/10 12:45:50;;;;;;;2.9;1.3;;;;;;;15.74;52.93359;957.2783;;;;
2019/05/10 12:48:15;;;;;;;2.4;1;;;;;;;15.93;51.9248;957.2001;;;;
2019/05/10 12:50:40;;;;;;;3.2;1.1;;;;;;;16.06;52.04688;957.2508;;;;
2019/05/10 12:53:05;;;;;;;1.4;0.9;;;;;;;15.99;51.91992;957.2216;;;;
2019/05/10 12:55:30;;;;;;;3.4;2.1;;;;;;;16.43;50.43945;957.2228;;;;
2019/05/10 12:57:55;;;;;;;2.5;1;;;;;;;16.39;50.13867;957.2083;;;;
2019/05/10 13:00:20;;;;;;;4.5;0.8;;;;;;;16.54;50.4873;957.113;;;;
2019/05/10 13:02:46;;;;;;;3;0.9;;;;;;;16.39;51.20801;957.0769;;;;
2019/05/10 13:05:11;;;;;;;2.2;0.7;;;;;;;16.18;50.25586;957.0829;;;;
2019/05/10 13:07:36;;;;;;;2.1;0.9;;;;;;;16.4;50.2334;957.0413;;;;
2019/05/10 13:10:01;;;;;;;3.2;0.8;;;;;;;16.2;48.69141;957.0483;;;;
2019/05/10 13:12:26;;;;;;;2.6;0.9;;;;;;;16.49;49.51953;957.0396;;;;
2019/05/10 13:14:51;;;;;;;2.2;0.7;;;;;;;16.76;45.17578;957.1107;;;;
2019/05/10 13:17:16;;;;;;;2.2;0.7;;;;;;;17.03;47.6543;956.9745;;;;
2019/05/10 13:19:41;;;;;;;1.7;0.8;;;;;;;17.21;46.41211;957.0076;;;;
2019/05/10 13:22:07;;;;;;;2.8;0.8;;;;;;;17.42;44.93457;956.9101;;;;
2019/05/10 13:24:32;;;;;;;3.3;1;;;;;;;17.39;45.63281;956.9444;;;;
2019/05/10 13:26:57;;;;;;;1.8;1;;;;;;;17.46;44.74707;956.9207;;;;
2019/05/10 13:29:22;;;;;;;4.3;1.1;;;;;;;17.53;45.38574;956.9533;;;;
2019/05/10 13:31:47;;;;;;;3.5;0.8;;;;;;;17.77;44.79102;956.9586;;;;
2019/05/10 13:34:14;;;;;;;2.1;1;;;;;;;17.91;46.12793;956.8899;;;;
2019/05/10 13:36:39;;;;;;;3.1;1.2;;;;;;;17.79;45.69922;956.9645;;;;
2019/05/10 13:39:05;;;;;;;2.5;1.2;;;;;;;17.8;44.99707;956.9522;;;;
2019/05/10 13:41:29;;;;;;;2.4;1;;;;;;;17.92;44.53223;956.9487;;;;
2019/05/10 13:43:56;;;;;;;3.5;1;;;;;;;17.58;44.55762;956.8689;;;;
2019/05/10 13:46:21;;;;;;;3.1;1;;;;;;;17.81;45.37891;956.8546;;;;
2019/05/10 13:48:47;;;;;;;2.5;1;;;;;;;18.14;45.30566;956.8489;;;;
2019/05/10 13:51:12;;;;;;;3.7;0.9;;;;;;;18.18;46.82422;956.916;;;;
2019/05/10 13:53:37;;;;;;;4.1;1.2;;;;;;;18.03;44.43652;957.0259;;;;
2019/05/10 13:56:02;;;;;;;3.4;1;;;;;;;18.18;44.10547;956.8198;;;;
2019/05/10 13:58:27;;;;;;;2.4;0.8;;;;;;;18.32;42.96191;956.8322;;;;
2019/05/10 14:00:53;;;;;;;2.8;1;;;;;;;18.43;42.91309;956.8056;;;;
2019/05/10 14:03:18;;;;;;;2.4;0.9;;;;;;;18.29;44.96387;956.8558;;;;
2019/05/10 14:05:43;;;;;;;3.7;0.8;;;;;;;18.38;44.70996;956.8719;;;;
2019/05/10 14:08:08;;;;;;;1.7;0.9;;;;;;;17.94;44.74805;956.9286;;;;
2019/05/10 14:10:33;;;;;;;4.5;1;;;;;;;18.1;44.5625;956.9454;;;;
2019/05/10 14:12:58;;;;;;;2.2;0.8;;;;;;;17.75;44.80078;956.9331;;;;
2019/05/10 14:15:25;;;;;;;2.6;0.9;;;;;;;17.73;45.62109;956.8142;;;;
2019/05/10 14:17:49;;;;;;;2.8;0.8;;;;;;;17.83;45.61914;956.8511;;;;
2019/05/10 14:20:13;;;;;;;3.8;0.8;;;;;;;17.65;45.89746;956.8806;;;;
2019/05/10 14:22:39;;;;;;;1.5;0.9;;;;;;;17.75;45.27734;956.8769;;;;
2019/05/10 14:25:04;;;;;;;1.3;0.8;;;;;;;17.9;44.98242;956.788;;;;
2019/05/10 14:27:29;;;;;;;2.7;0.8;;;;;;;17.64;46.06348;956.8822;;;;
2019/05/10 14:29:54;;;;;;;1.8;0.9;;;;;;;17.56;46.35449;956.8586;;;;
2019/05/10 14:32:19;;;;;;;3;0.9;;;;;;;17.25;47.16602;956.8456;;;;